Kegley, West Virginia
Current Conditions -  °F | °C
As of 3:52 AM on Saturday 22 Nov 2014 (Local Time) from KBLF Reporting Station
Clear Clear  
Wind Chill: 26°   Ceiling: Unl
Heat Index: 26°   Visibility: 10mi
Dew Point:   Wind: 3mph
Humidity: 41%   Direction: 120°ESE
Pressure: 30.39"   Gusts: NA
Location:  37.4°N, 81.13°W
Report Text: KBLF 220852Z AUTO 12003KT 10SM CLR M03/M15 A3039 RMK AO2 SLP312 T10331150 56002
Loading
Personal Weather Stations






























Interactive Weather Map New forecast layout! Learn more

10-Day Weather Forecast

Advertisements
Track Severe Weather on mobile